KVLD

Valdosta Regional Airport

Valdosta, Georgia, USA
KVLD 200545Z 2006/2106 24005KT 6SM -RA FEW008 SCT015 OVC050 TEMPO 2006/2007 27012G18KT 3SM RA BKN015 FM200700 27010G15KT P6SM OVC019 FM201700 32010G15KT P6SM OVC060 FM202100 31010KT P6SM SKC
Issued Valid From Valid To
Jan-20 @ 05:45 UTC
(6 hours ago)
Jan-20 @ 06:00 UTC
(6 hours ago)
Jan-21 @ 06:00 UTC
(in 18 hours)
Expired Click to View Jan-20 @ 06:00 to Jan-20 @ 07:00
KVLD 200545Z 2006/2106 24005KT 6SM -RA FEW008 SCT015 OVC050
Wind Visibility Clouds Conditions
240° at 5 knots 6 miles
  • Few at 800' AGL
  • Scattered at 1,500' AGL
  • Overcast at 5,000' AGL
  • Light Rain
Expired Click to View Jan-20 @ 06:00 to Jan-20 @ 07:00
TEMPO 2006/2007 27012G18KT 3SM RA BKN015
Wind Visibility Clouds Conditions
270° at 12 knots
 Gusting to 18 knots
3 miles
  • Broken at 1,500' AGL
  • Rain
From Jan-20 @ 07:00 to Jan-20 @ 17:00
FM200700 27010G15KT P6SM OVC019
Wind Visibility Clouds
270° at 10 knots
 Gusting to 15 knots
Greater than 6 miles
  • Overcast at 1,900' AGL
From Jan-20 @ 17:00 to Jan-20 @ 21:00
FM201700 32010G15KT P6SM OVC060
Wind Visibility Clouds
320° at 10 knots
 Gusting to 15 knots
Greater than 6 miles
  • Overcast at 6,000' AGL
From Jan-20 @ 21:00 to Jan-21 @ 06:00
FM202100 31010KT P6SM SKC
Wind Visibility Clouds
310° at 10 knots Greater than 6 miles
  • Clear skies
KVLD 200545Z 2006/2106 24005KT 6SM -RA FEW008 SCT015 OVC050 TEMPO 2006/2007 27012G18KT 3SM RA BKN015 FM200700 27010G15KT P6SM OVC019 FM201700 32010G15KT P6SM OVC060 FM202100 31010KT P6SM SKC
Issued Jan-20 @ 05:45 UTC
(6 hours ago)
Valid From Jan-20 @ 06:00 UTC
(6 hours ago)
Valid To Jan-21 @ 06:00 UTC
(in 18 hours)
Jan-20 @ 06:00 - Jan-20 @ 07:00
Wind Visibility
240° at 5 knots 6 miles
Clouds
  • Few at 800' AGL
  • Scattered at 1,500' AGL
  • Overcast at 5,000' AGL
Conditions
  • Light Rain
Jan-20 @ 06:00 - Jan-20 @ 07:00
Wind Visibility
270° at 12 knots
 Gusting to 18 knots
3 miles
Clouds
  • Broken at 1,500' AGL
Conditions
  • Rain
From Jan-20 @ 07:00 - Jan-20 @ 17:00
Wind Visibility
270° at 10 knots
 Gusting to 15 knots
Greater than 6 miles
Clouds
  • Overcast at 1,900' AGL
From Jan-20 @ 17:00 - Jan-20 @ 21:00
Wind Visibility
320° at 10 knots
 Gusting to 15 knots
Greater than 6 miles
Clouds
  • Overcast at 6,000' AGL
From Jan-20 @ 21:00 - Jan-21 @ 06:00
Wind Visibility
310° at 10 knots Greater than 6 miles
Clouds
  • Clear skies